Salamis Filoxenia — 5BUY2 — position and weather

sailwx.info

Track history (hours):
 
Tides and Currents Weather Stations Pressure Air Temp Water Temp Dewpoint Dewpoint Depression Visibility Wind Speed Wind Dir Waves Ship Positions

Salamis Filoxenia

Last reported at 2017-Sep-18 11:42 UTC. Time now 2017-Sep-21 05:15 UTC.
Position N 34°37' E 033°03'.

Length 157 m; draft 6.2 m.

Type: Passenger vessel. MMSI: 209167000.

Date/timePositionNaut miles runAvg speedWind from/ knotsBaromVisibWave heightAir tempDewpointWater temp
2017-Sep-18 11:42N 34°37' E 033°03'2 9.7
2017-Sep-18 11:28N 34°39' E 033°02'1 1.3
2017-Sep-18 11:00N 34°39' E 033°01'0 0.0
2017-Sep-18 10:30N 34°39' E 033°01'0 0.0
2017-Sep-18 10:00N 34°39' E 033°01'0 0.0
2017-Sep-18 09:30N 34°39' E 033°01'0 0.0
2017-Sep-18 09:00N 34°39' E 033°01'0 0.0
2017-Sep-18 08:30N 34°39' E 033°01'0 0.0
2017-Sep-18 08:00N 34°39' E 033°01'0 0.0
2017-Sep-18 07:30N 34°39' E 033°01'0 0.0
2017-Sep-18 07:00N 34°39' E 033°01'0 0.0
2017-Sep-18 06:30N 34°39' E 033°01'0 0.0
2017-Sep-18 06:00N 34°39' E 033°01'0 0.7
2017-Sep-18 05:30N 34°39' E 033°02'  
2017-Sep-15 14:49N 34°33' E 033°03'412.2
2017-Sep-15 14:30N 34°37' E 033°03'3 6.3
2017-Sep-15 14:01N 34°39' E 033°01'0 0.0
2017-Sep-15 13:31N 34°39' E 033°01'0 0.0
2017-Sep-15 13:00N 34°39' E 033°01'0 0.0
2017-Sep-15 12:30N 34°39' E 033°01'0 0.0
2017-Sep-15 12:00N 34°39' E 033°01'0 0.0
2017-Sep-15 11:31N 34°39' E 033°01'0 0.0
2017-Sep-15 11:01N 34°39' E 033°01'0 0.0
2017-Sep-15 10:31N 34°39' E 033°01'0 0.0
2017-Sep-15 10:01N 34°39' E 033°01'0 0.0
2017-Sep-15 09:31N 34°39' E 033°01'0 0.0
2017-Sep-15 09:00N 34°39' E 033°01'0 0.0
2017-Sep-15 08:30N 34°39' E 033°01'0 0.0
2017-Sep-15 08:01N 34°39' E 033°01'0 0.0
2017-Sep-15 07:31N 34°39' E 033°01'0 0.0
2017-Sep-15 07:01N 34°39' E 033°01'0 0.0
2017-Sep-15 06:31N 34°39' E 033°01'0 0.0
2017-Sep-15 06:01N 34°39' E 033°01'0 0.0
2017-Sep-15 05:31N 34°39' E 033°01'0 0.0
2017-Sep-15 05:01N 34°39' E 033°01'0 0.2
2017-Sep-15 04:30N 34°39' E 033°01'144 5.5
2017-Sep-14 02:10N 32°52' E 034°57'214.0
2017-Sep-14 02:00N 32°53' E 034°55'814.2
2017-Sep-14 01:28N 32°54' E 034°46'714.2
2017-Sep-14 01:00N 32°56' E 034°38'714.4
2017-Sep-14 00:30N 33°02' E 034°33'714.3
2017-Sep-14 00:00N 33°07' E 034°28'714.2
2017-Sep-13 23:30N 33°13' E 034°23'714.2
2017-Sep-13 23:00N 33°19' E 034°17'714.1
2017-Sep-13 22:31N 33°24' E 034°12'713.9
2017-Sep-13 22:00N 33°30' E 034°07'714.1
2017-Sep-13 21:30N 33°35' E 034°02'714.2
2017-Sep-13 21:00N 33°41' E 033°57'714.3
2017-Sep-13 20:30N 33°47' E 033°52'714.3
2017-Sep-13 20:00N 33°52' E 033°46'714.1
2017-Sep-13 19:30N 33°58' E 033°41'714.1
2017-Sep-13 19:00N 34°04' E 033°36'714.1
2017-Sep-13 18:30N 34°09' E 033°31'714.4
2017-Sep-13 18:00N 34°15' E 033°26'714.6
2017-Sep-13 17:30N 34°21' E 033°20'714.7
2017-Sep-13 17:00N 34°27' E 033°15'815.0
2017-Sep-13 16:29N 34°33' E 033°09'714.9
2017-Sep-13 15:59N 34°39' E 033°04'2 4.5
2017-Sep-13 15:30N 34°39' E 033°01'0 0.0
2017-Sep-13 14:59N 34°39' E 033°01'0 0.0
2017-Sep-13 14:29N 34°39' E 033°01'0 0.0
2017-Sep-13 13:59N 34°39' E 033°01'0 0.0
2017-Sep-13 13:30N 34°39' E 033°01'0 0.0
2017-Sep-13 12:58N 34°39' E 033°01'0 0.0
2017-Sep-13 12:29N 34°39' E 033°01'0 0.0
2017-Sep-13 12:00N 34°39' E 033°01'0 0.0
2017-Sep-13 11:29N 34°39' E 033°01'0 0.0
2017-Sep-13 10:58N 34°39' E 033°01'0 0.0
2017-Sep-13 10:30N 34°39' E 033°01'0 0.0
2017-Sep-13 10:00N 34°39' E 033°01'0 0.0
2017-Sep-13 09:30N 34°39' E 033°01'0 0.0
2017-Sep-13 09:00N 34°39' E 033°01'1 1.3
2017-Sep-13 08:30N 34°39' E 033°02'4211.1
2017-Sep-13 04:43N 34°48' E 032°12'4214.2
2017-Sep-13 01:44N 35°09' E 031°28'4314.4
2017-Sep-12 22:45N 35°32' E 030°43'314.0
2017-Sep-12 22:31N 35°34' E 030°40'1814.6
2017-Sep-12 21:16N 35°43' E 030°21'3414.7
2017-Sep-12 18:59N 35°59' E 029°44'914.5
2017-Sep-12 18:22N 36°03' E 029°34'1013.9
2017-Sep-12 17:41N 36°08' E 029°24'213.9
2017-Sep-12 17:30N 36°09' E 029°21'220 5.0
2017-Sep-10 21:39N 37°06' E 024°56'214.2
2017-Sep-10 21:30N 37°08' E 024°57'714.1
2017-Sep-10 21:00N 37°15' E 024°58'714.2
2017-Sep-10 20:30N 37°22' E 025°00'510.0
2017-Sep-10 20:00N 37°26' E 024°57'0 0.1
2017-Sep-10 17:45N 37°26' E 024°57'0 0.0
2017-Sep-10 17:26N 37°26' E 024°57'0 0.0
2017-Sep-10 17:00N 37°26' E 024°57'0 0.0
2017-Sep-10 16:26N 37°26' E 024°57'0 0.0
2017-Sep-10 15:57N 37°26' E 024°57'0 0.0
2017-Sep-10 15:27N 37°26' E 024°57'0 0.0
2017-Sep-10 15:00N 37°26' E 024°57'0 0.0
2017-Sep-10 14:00N 37°26' E 024°57'0 0.0
2017-Sep-10 13:30N 37°26' E 024°57'0 0.0
2017-Sep-10 13:00N 37°26' E 024°57'0 0.0
2017-Sep-10 12:30N 37°26' E 024°57'0 0.0
2017-Sep-10 12:00N 37°26' E 024°57'0 0.0
2017-Sep-10 11:30N 37°26' E 024°57'0 0.0
2017-Sep-10 11:00N 37°26' E 024°57'0 0.0
2017-Sep-10 10:29N 37°26' E 024°57'0 0.0
2017-Sep-10 09:58N 37°26' E 024°57'0 0.0
2017-Sep-10 09:29N 37°26' E 024°57'0 0.0
2017-Sep-10 09:00N 37°26' E 024°57'0 0.0
2017-Sep-10 08:30N 37°26' E 024°57'0 0.0
2017-Sep-10 08:00N 37°26' E 024°57'0 0.0
2017-Sep-10 07:26N 37°26' E 024°57'0 0.0
2017-Sep-10 07:00N 37°26' E 024°57'0 0.0
2017-Sep-10 06:30N 37°26' E 024°57'0 0.0
2017-Sep-10 06:00N 37°26' E 024°57'0 0.2
2017-Sep-10 05:30N 37°26' E 024°57'611.7
2017-Sep-10 05:00N 37°24' E 025°04'713.5
2017-Sep-10 04:30N 37°22' E 025°11'713.4
2017-Sep-10 04:00N 37°19' E 025°19'713.5
2017-Sep-10 03:31N 37°17' E 025°27'1013.3
2017-Sep-10 02:44N 37°14' E 025°40'311.2
2017-Sep-10 02:30N 37°15' E 025°42'611.0
2017-Sep-10 02:00N 37°12' E 025°48'238 8.8
2017-Sep-08 23:06N 35°36' E 030°18'214.9
2017-Sep-08 22:58N 35°35' E 030°21'2914.7
2017-Sep-08 20:58N 35°21' E 030°53'714.8
2017-Sep-08 20:30N 35°18' E 031°00'714.7
2017-Sep-08 20:00N 35°14' E 031°08'714.4
2017-Sep-08 19:30N 35°11' E 031°16'714.4
2017-Sep-08 19:00N 35°08' E 031°23'1014.5
2017-Sep-08 18:18N 35°03' E 031°35'414.7
2017-Sep-08 18:00N 35°01' E 031°39'714.7
2017-Sep-08 17:30N 34°57' E 031°47'714.9
2017-Sep-08 17:00N 34°54' E 031°55'1914.9
2017-Sep-08 15:46N 34°45' E 032°15'414.7
2017-Sep-08 15:30N 34°43' E 032°19'714.3
2017-Sep-08 15:00N 34°40' E 032°27'3113.8
2017-Sep-08 12:47N 34°33' E 033°03'415.3
2017-Sep-08 12:30N 34°37' E 033°03'2 5.0
2017-Sep-08 12:01N 34°39' E 033°01'  
Track history (hours):
 
Tides and Currents Weather Stations Pressure Air Temp Water Temp Dewpoint Dewpoint Depression Visibility Wind Speed Wind Dir Waves Ship Positions

Salamis Filoxenia

Last reported at 2017-Sep-18 11:42 UTC. Time now 2017-Sep-21 05:15 UTC.
Position N 34°37' E 033°03'.

Length 157 m; draft 6.2 m.

Type: Passenger vessel. MMSI: 209167000.

Date/timePositionNaut miles runAvg speedWind from/ knotsBaromVisibWave heightAir tempDewpointWater temp
2017-Sep-18 11:42N 34°37' E 033°03'2 9.7
2017-Sep-18 11:28N 34°39' E 033°02'1 1.3
2017-Sep-18 11:00N 34°39' E 033°01'0 0.0
2017-Sep-18 10:30N 34°39' E 033°01'0 0.0
2017-Sep-18 10:00N 34°39' E 033°01'0 0.0
2017-Sep-18 09:30N 34°39' E 033°01'0 0.0
2017-Sep-18 09:00N 34°39' E 033°01'0 0.0
2017-Sep-18 08:30N 34°39' E 033°01'0 0.0
2017-Sep-18 08:00N 34°39' E 033°01'0 0.0
2017-Sep-18 07:30N 34°39' E 033°01'0 0.0
2017-Sep-18 07:00N 34°39' E 033°01'0 0.0
2017-Sep-18 06:30N 34°39' E 033°01'0 0.0
2017-Sep-18 06:00N 34°39' E 033°01'0 0.7
2017-Sep-18 05:30N 34°39' E 033°02'  
2017-Sep-15 14:49N 34°33' E 033°03'412.2
2017-Sep-15 14:30N 34°37' E 033°03'3 6.3
2017-Sep-15 14:01N 34°39' E 033°01'0 0.0
2017-Sep-15 13:31N 34°39' E 033°01'0 0.0
2017-Sep-15 13:00N 34°39' E 033°01'0 0.0
2017-Sep-15 12:30N 34°39' E 033°01'0 0.0
2017-Sep-15 12:00N 34°39' E 033°01'0 0.0
2017-Sep-15 11:31N 34°39' E 033°01'0 0.0
2017-Sep-15 11:01N 34°39' E 033°01'0 0.0
2017-Sep-15 10:31N 34°39' E 033°01'0 0.0
2017-Sep-15 10:01N 34°39' E 033°01'0 0.0
2017-Sep-15 09:31N 34°39' E 033°01'0 0.0
2017-Sep-15 09:00N 34°39' E 033°01'0 0.0
2017-Sep-15 08:30N 34°39' E 033°01'0 0.0
2017-Sep-15 08:01N 34°39' E 033°01'0 0.0
2017-Sep-15 07:31N 34°39' E 033°01'0 0.0
2017-Sep-15 07:01N 34°39' E 033°01'0 0.0
2017-Sep-15 06:31N 34°39' E 033°01'0 0.0
2017-Sep-15 06:01N 34°39' E 033°01'0 0.0
2017-Sep-15 05:31N 34°39' E 033°01'0 0.0
2017-Sep-15 05:01N 34°39' E 033°01'0 0.2
2017-Sep-15 04:30N 34°39' E 033°01'144 5.5
2017-Sep-14 02:10N 32°52' E 034°57'214.0
2017-Sep-14 02:00N 32°53' E 034°55'814.2
2017-Sep-14 01:28N 32°54' E 034°46'714.2
2017-Sep-14 01:00N 32°56' E 034°38'714.4
2017-Sep-14 00:30N 33°02' E 034°33'714.3
2017-Sep-14 00:00N 33°07' E 034°28'714.2
2017-Sep-13 23:30N 33°13' E 034°23'714.2
2017-Sep-13 23:00N 33°19' E 034°17'714.1
2017-Sep-13 22:31N 33°24' E 034°12'713.9
2017-Sep-13 22:00N 33°30' E 034°07'714.1
2017-Sep-13 21:30N 33°35' E 034°02'714.2
2017-Sep-13 21:00N 33°41' E 033°57'714.3
2017-Sep-13 20:30N 33°47' E 033°52'714.3
2017-Sep-13 20:00N 33°52' E 033°46'714.1
2017-Sep-13 19:30N 33°58' E 033°41'714.1
2017-Sep-13 19:00N 34°04' E 033°36'714.1
2017-Sep-13 18:30N 34°09' E 033°31'714.4
2017-Sep-13 18:00N 34°15' E 033°26'714.6
2017-Sep-13 17:30N 34°21' E 033°20'714.7
2017-Sep-13 17:00N 34°27' E 033°15'815.0
2017-Sep-13 16:29N 34°33' E 033°09'714.9
2017-Sep-13 15:59N 34°39' E 033°04'2 4.5
2017-Sep-13 15:30N 34°39' E 033°01'0 0.0
2017-Sep-13 14:59N 34°39' E 033°01'0 0.0
2017-Sep-13 14:29N 34°39' E 033°01'0 0.0
2017-Sep-13 13:59N 34°39' E 033°01'0 0.0
2017-Sep-13 13:30N 34°39' E 033°01'0 0.0
2017-Sep-13 12:58N 34°39' E 033°01'0 0.0
2017-Sep-13 12:29N 34°39' E 033°01'0 0.0
2017-Sep-13 12:00N 34°39' E 033°01'0 0.0
2017-Sep-13 11:29N 34°39' E 033°01'0 0.0
2017-Sep-13 10:58N 34°39' E 033°01'0 0.0
2017-Sep-13 10:30N 34°39' E 033°01'0 0.0
2017-Sep-13 10:00N 34°39' E 033°01'0 0.0
2017-Sep-13 09:30N 34°39' E 033°01'0 0.0
2017-Sep-13 09:00N 34°39' E 033°01'1 1.3
2017-Sep-13 08:30N 34°39' E 033°02'4211.1
2017-Sep-13 04:43N 34°48' E 032°12'4214.2
2017-Sep-13 01:44N 35°09' E 031°28'4314.4
2017-Sep-12 22:45N 35°32' E 030°43'314.0
2017-Sep-12 22:31N 35°34' E 030°40'1814.6
2017-Sep-12 21:16N 35°43' E 030°21'3414.7
2017-Sep-12 18:59N 35°59' E 029°44'914.5
2017-Sep-12 18:22N 36°03' E 029°34'1013.9
2017-Sep-12 17:41N 36°08' E 029°24'213.9
2017-Sep-12 17:30N 36°09' E 029°21'220 5.0
2017-Sep-10 21:39N 37°06' E 024°56'214.2
2017-Sep-10 21:30N 37°08' E 024°57'714.1
2017-Sep-10 21:00N 37°15' E 024°58'714.2
2017-Sep-10 20:30N 37°22' E 025°00'510.0
2017-Sep-10 20:00N 37°26' E 024°57'0 0.1
2017-Sep-10 17:45N 37°26' E 024°57'0 0.0
2017-Sep-10 17:26N 37°26' E 024°57'0 0.0
2017-Sep-10 17:00N 37°26' E 024°57'0 0.0
2017-Sep-10 16:26N 37°26' E 024°57'0 0.0
2017-Sep-10 15:57N 37°26' E 024°57'0 0.0
2017-Sep-10 15:27N 37°26' E 024°57'0 0.0
2017-Sep-10 15:00N 37°26' E 024°57'0 0.0
2017-Sep-10 14:00N 37°26' E 024°57'0 0.0
2017-Sep-10 13:30N 37°26' E 024°57'0 0.0
2017-Sep-10 13:00N 37°26' E 024°57'0 0.0
2017-Sep-10 12:30N 37°26' E 024°57'0 0.0
2017-Sep-10 12:00N 37°26' E 024°57'0 0.0
2017-Sep-10 11:30N 37°26' E 024°57'0 0.0
2017-Sep-10 11:00N 37°26' E 024°57'0 0.0
2017-Sep-10 10:29N 37°26' E 024°57'0 0.0
2017-Sep-10 09:58N 37°26' E 024°57'0 0.0
2017-Sep-10 09:29N 37°26' E 024°57'0 0.0
2017-Sep-10 09:00N 37°26' E 024°57'0 0.0
2017-Sep-10 08:30N 37°26' E 024°57'0 0.0
2017-Sep-10 08:00N 37°26' E 024°57'0 0.0
2017-Sep-10 07:26N 37°26' E 024°57'0 0.0
2017-Sep-10 07:00N 37°26' E 024°57'0 0.0
2017-Sep-10 06:30N 37°26' E 024°57'0 0.0
2017-Sep-10 06:00N 37°26' E 024°57'0 0.2
2017-Sep-10 05:30N 37°26' E 024°57'611.7
2017-Sep-10 05:00N 37°24' E 025°04'713.5
2017-Sep-10 04:30N 37°22' E 025°11'713.4
2017-Sep-10 04:00N 37°19' E 025°19'713.5
2017-Sep-10 03:31N 37°17' E 025°27'1013.3
2017-Sep-10 02:44N 37°14' E 025°40'311.2
2017-Sep-10 02:30N 37°15' E 025°42'611.0
2017-Sep-10 02:00N 37°12' E 025°48'238 8.8
2017-Sep-08 23:06N 35°36' E 030°18'214.9
2017-Sep-08 22:58N 35°35' E 030°21'2914.7
2017-Sep-08 20:58N 35°21' E 030°53'714.8
2017-Sep-08 20:30N 35°18' E 031°00'714.7
2017-Sep-08 20:00N 35°14' E 031°08'714.4
2017-Sep-08 19:30N 35°11' E 031°16'714.4
2017-Sep-08 19:00N 35°08' E 031°23'1014.5
2017-Sep-08 18:18N 35°03' E 031°35'414.7
2017-Sep-08 18:00N 35°01' E 031°39'714.7
2017-Sep-08 17:30N 34°57' E 031°47'714.9
2017-Sep-08 17:00N 34°54' E 031°55'1914.9
2017-Sep-08 15:46N 34°45' E 032°15'414.7
2017-Sep-08 15:30N 34°43' E 032°19'714.3
2017-Sep-08 15:00N 34°40' E 032°27'3113.8
2017-Sep-08 12:47N 34°33' E 033°03'415.3
2017-Sep-08 12:30N 34°37' E 033°03'2 5.0
2017-Sep-08 12:01N 34°39' E 033°01'  

Dump ship's entire track history